sensor_id;sensor_type;location;lat;lon;timestamp;P1;durP1;ratioP1;P2;durP2;ratioP2
47960;SDS011;33721;48.852;9.936;2023-04-24T00:01:22;2.97;;;1.33;;
47960;SDS011;33721;48.852;9.936;2023-04-24T00:03:48;3.03;;;1.63;;
47960;SDS011;33721;48.852;9.936;2023-04-24T00:06:14;6.22;;;1.70;;
47960;SDS011;33721;48.852;9.936;2023-04-24T00:08:41;4.75;;;1.58;;
47960;SDS011;33721;48.852;9.936;2023-04-24T00:11:07;6.25;;;1.70;;
47960;SDS011;33721;48.852;9.936;2023-04-24T00:13:34;2.15;;;1.30;;
47960;SDS011;33721;48.852;9.936;2023-04-24T00:16:00;2.45;;;1.40;;
47960;SDS011;33721;48.852;9.936;2023-04-24T00:18:26;2.55;;;1.30;;
47960;SDS011;33721;48.852;9.936;2023-04-24T00:20:51;2.95;;;1.70;;
47960;SDS011;33721;48.852;9.936;2023-04-24T00:23:17;4.32;;;1.73;;
47960;SDS011;33721;48.852;9.936;2023-04-24T00:25:43;2.00;;;1.23;;
47960;SDS011;33721;48.852;9.936;2023-04-24T00:28:10;2.10;;;1.20;;
47960;SDS011;33721;48.852;9.936;2023-04-24T00:30:36;2.78;;;1.35;;
47960;SDS011;33721;48.852;9.936;2023-04-24T00:33:02;2.05;;;1.30;;
47960;SDS011;33721;48.852;9.936;2023-04-24T00:35:28;2.63;;;1.30;;
47960;SDS011;33721;48.852;9.936;2023-04-24T00:37:53;3.20;;;1.75;;
47960;SDS011;33721;48.852;9.936;2023-04-24T00:40:19;3.72;;;1.70;;
47960;SDS011;33721;48.852;9.936;2023-04-24T00:42:45;3.38;;;1.88;;
47960;SDS011;33721;48.852;9.936;2023-04-24T00:45:11;2.80;;;1.80;;
47960;SDS011;33721;48.852;9.936;2023-04-24T00:47:37;2.72;;;1.60;;
47960;SDS011;33721;48.852;9.936;2023-04-24T00:50:04;3.10;;;1.90;;
47960;SDS011;33721;48.852;9.936;2023-04-24T00:52:31;3.83;;;2.15;;
47960;SDS011;33721;48.852;9.936;2023-04-24T00:54:57;6.07;;;2.00;;
47960;SDS011;33721;48.852;9.936;2023-04-24T00:57:23;5.50;;;2.10;;
47960;SDS011;33721;48.852;9.936;2023-04-24T00:59:50;5.30;;;2.30;;
47960;SDS011;33721;48.852;9.936;2023-04-24T01:02:16;5.13;;;2.05;;
47960;SDS011;33721;48.852;9.936;2023-04-24T01:04:42;5.63;;;1.70;;
47960;SDS011;33721;48.852;9.936;2023-04-24T01:07:08;3.25;;;1.70;;
47960;SDS011;33721;48.852;9.936;2023-04-24T01:09:39;2.95;;;1.63;;
47960;SDS011;33721;48.852;9.936;2023-04-24T01:12:08;3.17;;;1.70;;
47960;SDS011;33721;48.852;9.936;2023-04-24T01:14:34;4.93;;;2.47;;
47960;SDS011;33721;48.852;9.936;2023-04-24T01:17:00;3.65;;;1.70;;
47960;SDS011;33721;48.852;9.936;2023-04-24T01:19:26;7.03;;;2.17;;
47960;SDS011;33721;48.852;9.936;2023-04-24T01:21:53;2.92;;;1.92;;
47960;SDS011;33721;48.852;9.936;2023-04-24T01:26:48;2.80;;;1.80;;
47960;SDS011;33721;48.852;9.936;2023-04-24T01:29:14;3.22;;;1.60;;
47960;SDS011;33721;48.852;9.936;2023-04-24T01:31:40;5.35;;;1.77;;
47960;SDS011;33721;48.852;9.936;2023-04-24T01:34:06;3.28;;;1.50;;
47960;SDS011;33721;48.852;9.936;2023-04-24T01:36:33;4.18;;;2.10;;
47960;SDS011;33721;48.852;9.936;2023-04-24T01:39:00;4.65;;;1.55;;
47960;SDS011;33721;48.852;9.936;2023-04-24T01:41:26;2.63;;;1.40;;
47960;SDS011;33721;48.852;9.936;2023-04-24T01:43:52;2.90;;;1.40;;
47960;SDS011;33721;48.852;9.936;2023-04-24T01:46:18;3.53;;;1.25;;
47960;SDS011;33721;48.852;9.936;2023-04-24T01:48:45;4.35;;;1.45;;
47960;SDS011;33721;48.852;9.936;2023-04-24T01:51:11;3.10;;;1.40;;
47960;SDS011;33721;48.852;9.936;2023-04-24T01:53:36;3.53;;;1.48;;
47960;SDS011;33721;48.852;9.936;2023-04-24T01:56:02;2.78;;;1.40;;
47960;SDS011;33721;48.852;9.936;2023-04-24T01:58:28;4.45;;;1.30;;
47960;SDS011;33721;48.852;9.936;2023-04-24T02:00:55;2.90;;;1.55;;
47960;SDS011;33721;48.852;9.936;2023-04-24T02:03:21;2.25;;;1.40;;
47960;SDS011;33721;48.852;9.936;2023-04-24T02:05:47;3.08;;;1.60;;
47960;SDS011;33721;48.852;9.936;2023-04-24T02:08:13;2.38;;;0.98;;
47960;SDS011;33721;48.852;9.936;2023-04-24T02:10:38;3.92;;;1.55;;
47960;SDS011;33721;48.852;9.936;2023-04-24T02:13:04;4.95;;;1.85;;
47960;SDS011;33721;48.852;9.936;2023-04-24T02:15:30;10.48;;;1.73;;
47960;SDS011;33721;48.852;9.936;2023-04-24T02:17:56;3.17;;;1.50;;
47960;SDS011;33721;48.852;9.936;2023-04-24T02:20:22;2.80;;;1.42;;
47960;SDS011;33721;48.852;9.936;2023-04-24T02:22:48;2.95;;;1.55;;
47960;SDS011;33721;48.852;9.936;2023-04-24T02:25:13;3.92;;;1.70;;
47960;SDS011;33721;48.852;9.936;2023-04-24T02:27:39;4.28;;;1.48;;
47960;SDS011;33721;48.852;9.936;2023-04-24T02:30:05;3.15;;;1.33;;
47960;SDS011;33721;48.852;9.936;2023-04-24T02:32:31;3.15;;;1.40;;
47960;SDS011;33721;48.852;9.936;2023-04-24T02:34:57;2.97;;;1.33;;
47960;SDS011;33721;48.852;9.936;2023-04-24T02:37:22;4.35;;;1.70;;
47960;SDS011;33721;48.852;9.936;2023-04-24T02:39:48;3.88;;;1.38;;
47960;SDS011;33721;48.852;9.936;2023-04-24T02:42:13;3.45;;;1.50;;
47960;SDS011;33721;48.852;9.936;2023-04-24T02:44:40;4.10;;;1.60;;
47960;SDS011;33721;48.852;9.936;2023-04-24T02:47:06;2.83;;;1.38;;
47960;SDS011;33721;48.852;9.936;2023-04-24T02:49:32;3.45;;;1.20;;
47960;SDS011;33721;48.852;9.936;2023-04-24T02:51:58;3.05;;;1.30;;
47960;SDS011;33721;48.852;9.936;2023-04-24T02:54:23;1.92;;;1.10;;
47960;SDS011;33721;48.852;9.936;2023-04-24T02:56:49;2.90;;;1.02;;
47960;SDS011;33721;48.852;9.936;2023-04-24T02:59:15;3.65;;;0.88;;
47960;SDS011;33721;48.852;9.936;2023-04-24T03:01:41;4.50;;;1.10;;
47960;SDS011;33721;48.852;9.936;2023-04-24T03:04:06;2.45;;;1.00;;
47960;SDS011;33721;48.852;9.936;2023-04-24T03:06:32;3.70;;;0.85;;
47960;SDS011;33721;48.852;9.936;2023-04-24T03:08:57;1.35;;;0.82;;
47960;SDS011;33721;48.852;9.936;2023-04-24T03:11:23;2.08;;;1.20;;
47960;SDS011;33721;48.852;9.936;2023-04-24T03:13:49;1.70;;;0.95;;
47960;SDS011;33721;48.852;9.936;2023-04-24T03:16:14;4.10;;;1.08;;
47960;SDS011;33721;48.852;9.936;2023-04-24T03:18:40;1.50;;;0.90;;
47960;SDS011;33721;48.852;9.936;2023-04-24T03:21:06;3.28;;;1.40;;
47960;SDS011;33721;48.852;9.936;2023-04-24T03:23:31;3.35;;;1.35;;
47960;SDS011;33721;48.852;9.936;2023-04-24T03:25:57;3.33;;;1.20;;
47960;SDS011;33721;48.852;9.936;2023-04-24T03:28:22;4.43;;;1.48;;
47960;SDS011;33721;48.852;9.936;2023-04-24T03:30:50;3.30;;;1.25;;
47960;SDS011;33721;48.852;9.936;2023-04-24T03:33:15;2.22;;;1.30;;
47960;SDS011;33721;48.852;9.936;2023-04-24T03:35:41;1.85;;;1.10;;
47960;SDS011;33721;48.852;9.936;2023-04-24T03:38:06;3.35;;;1.35;;
47960;SDS011;33721;48.852;9.936;2023-04-24T03:40:32;3.40;;;1.20;;
47960;SDS011;33721;48.852;9.936;2023-04-24T03:42:58;6.10;;;1.30;;
47960;SDS011;33721;48.852;9.936;2023-04-24T03:45:24;3.65;;;1.50;;
47960;SDS011;33721;48.852;9.936;2023-04-24T03:47:49;2.72;;;1.20;;
47960;SDS011;33721;48.852;9.936;2023-04-24T03:50:15;3.25;;;1.48;;
47960;SDS011;33721;48.852;9.936;2023-04-24T03:52:41;7.85;;;1.73;;
47960;SDS011;33721;48.852;9.936;2023-04-24T03:55:07;4.07;;;1.70;;
47960;SDS011;33721;48.852;9.936;2023-04-24T03:57:32;2.88;;;1.10;;
47960;SDS011;33721;48.852;9.936;2023-04-24T03:59:58;3.60;;;1.10;;
47960;SDS011;33721;48.852;9.936;2023-04-24T04:02:23;5.20;;;1.33;;
47960;SDS011;33721;48.852;9.936;2023-04-24T04:04:49;4.35;;;1.30;;
47960;SDS011;33721;48.852;9.936;2023-04-24T04:07:15;6.22;;;2.17;;
47960;SDS011;33721;48.852;9.936;2023-04-24T04:09:40;3.22;;;1.50;;
47960;SDS011;33721;48.852;9.936;2023-04-24T04:12:06;3.20;;;1.33;;
47960;SDS011;33721;48.852;9.936;2023-04-24T04:14:31;5.28;;;1.63;;
47960;SDS011;33721;48.852;9.936;2023-04-24T04:16:57;3.65;;;1.60;;
47960;SDS011;33721;48.852;9.936;2023-04-24T04:19:23;3.08;;;1.55;;
47960;SDS011;33721;48.852;9.936;2023-04-24T04:21:48;3.05;;;1.50;;
47960;SDS011;33721;48.852;9.936;2023-04-24T04:24:18;2.45;;;1.38;;
47960;SDS011;33721;48.852;9.936;2023-04-24T04:26:46;4.07;;;1.52;;
47960;SDS011;33721;48.852;9.936;2023-04-24T04:29:12;9.80;;;1.77;;
47960;SDS011;33721;48.852;9.936;2023-04-24T04:31:38;3.17;;;1.50;;
47960;SDS011;33721;48.852;9.936;2023-04-24T04:34:04;3.20;;;1.30;;
47960;SDS011;33721;48.852;9.936;2023-04-24T04:36:29;5.75;;;1.50;;
47960;SDS011;33721;48.852;9.936;2023-04-24T04:38:56;2.15;;;1.20;;
47960;SDS011;33721;48.852;9.936;2023-04-24T04:41:21;2.70;;;1.58;;
47960;SDS011;33721;48.852;9.936;2023-04-24T04:43:47;3.20;;;1.30;;
47960;SDS011;33721;48.852;9.936;2023-04-24T04:46:13;2.13;;;1.45;;
47960;SDS011;33721;48.852;9.936;2023-04-24T04:48:39;4.93;;;2.10;;
47960;SDS011;33721;48.852;9.936;2023-04-24T04:51:05;4.35;;;1.88;;
47960;SDS011;33721;48.852;9.936;2023-04-24T04:53:31;2.85;;;1.67;;
47960;SDS011;33721;48.852;9.936;2023-04-24T04:55:56;6.32;;;1.95;;
47960;SDS011;33721;48.852;9.936;2023-04-24T04:58:22;4.20;;;1.92;;
47960;SDS011;33721;48.852;9.936;2023-04-24T05:00:48;4.97;;;1.45;;
47960;SDS011;33721;48.852;9.936;2023-04-24T05:03:14;5.43;;;1.60;;
47960;SDS011;33721;48.852;9.936;2023-04-24T05:05:40;5.88;;;1.67;;
47960;SDS011;33721;48.852;9.936;2023-04-24T05:08:06;3.75;;;1.90;;
47960;SDS011;33721;48.852;9.936;2023-04-24T05:10:32;4.63;;;1.88;;
47960;SDS011;33721;48.852;9.936;2023-04-24T05:12:58;2.80;;;1.63;;
47960;SDS011;33721;48.852;9.936;2023-04-24T05:15:24;6.40;;;1.85;;
47960;SDS011;33721;48.852;9.936;2023-04-24T05:17:50;4.47;;;1.50;;
47960;SDS011;33721;48.852;9.936;2023-04-24T05:20:15;4.28;;;1.58;;
47960;SDS011;33721;48.852;9.936;2023-04-24T05:22:41;1.55;;;0.95;;
47960;SDS011;33721;48.852;9.936;2023-04-24T05:25:07;3.75;;;1.10;;
47960;SDS011;33721;48.852;9.936;2023-04-24T05:27:33;2.30;;;1.10;;
47960;SDS011;33721;48.852;9.936;2023-04-24T05:29:59;4.30;;;1.30;;
47960;SDS011;33721;48.852;9.936;2023-04-24T05:32:24;2.92;;;1.30;;
47960;SDS011;33721;48.852;9.936;2023-04-24T05:34:50;2.13;;;1.20;;
47960;SDS011;33721;48.852;9.936;2023-04-24T05:37:16;2.80;;;1.52;;
47960;SDS011;33721;48.852;9.936;2023-04-24T05:39:41;5.95;;;1.20;;
47960;SDS011;33721;48.852;9.936;2023-04-24T05:42:07;6.47;;;1.10;;
47960;SDS011;33721;48.852;9.936;2023-04-24T05:44:33;2.10;;;1.10;;
47960;SDS011;33721;48.852;9.936;2023-04-24T05:46:59;8.35;;;2.00;;
47960;SDS011;33721;48.852;9.936;2023-04-24T05:49:25;2.15;;;1.20;;
47960;SDS011;33721;48.852;9.936;2023-04-24T05:51:51;2.97;;;1.35;;
47960;SDS011;33721;48.852;9.936;2023-04-24T05:54:17;4.38;;;1.40;;
47960;SDS011;33721;48.852;9.936;2023-04-24T05:56:42;2.53;;;1.40;;
47960;SDS011;33721;48.852;9.936;2023-04-24T05:59:08;8.20;;;1.60;;
47960;SDS011;33721;48.852;9.936;2023-04-24T06:01:34;6.10;;;1.63;;
47960;SDS011;33721;48.852;9.936;2023-04-24T06:04:01;6.10;;;2.05;;
47960;SDS011;33721;48.852;9.936;2023-04-24T06:06:27;5.32;;;1.92;;
47960;SDS011;33721;48.852;9.936;2023-04-24T06:08:54;6.35;;;2.00;;
47960;SDS011;33721;48.852;9.936;2023-04-24T06:11:19;4.68;;;2.10;;
47960;SDS011;33721;48.852;9.936;2023-04-24T06:13:45;5.63;;;1.95;;
47960;SDS011;33721;48.852;9.936;2023-04-24T06:16:11;4.15;;;1.92;;
47960;SDS011;33721;48.852;9.936;2023-04-24T06:18:36;3.97;;;1.88;;
47960;SDS011;33721;48.852;9.936;2023-04-24T06:21:02;4.30;;;2.10;;
47960;SDS011;33721;48.852;9.936;2023-04-24T06:23:28;4.95;;;2.17;;
47960;SDS011;33721;48.852;9.936;2023-04-24T06:25:54;5.60;;;2.20;;
47960;SDS011;33721;48.852;9.936;2023-04-24T06:28:20;7.18;;;2.40;;
47960;SDS011;33721;48.852;9.936;2023-04-24T06:30:45;4.95;;;2.60;;
47960;SDS011;33721;48.852;9.936;2023-04-24T06:33:11;4.70;;;2.45;;
47960;SDS011;33721;48.852;9.936;2023-04-24T06:35:36;5.15;;;2.38;;
47960;SDS011;33721;48.852;9.936;2023-04-24T06:38:03;6.90;;;2.90;;
47960;SDS011;33721;48.852;9.936;2023-04-24T06:40:28;5.63;;;3.22;;
47960;SDS011;33721;48.852;9.936;2023-04-24T06:42:55;6.15;;;2.88;;
47960;SDS011;33721;48.852;9.936;2023-04-24T06:45:20;6.07;;;2.80;;
47960;SDS011;33721;48.852;9.936;2023-04-24T06:47:46;7.00;;;2.70;;
47960;SDS011;33721;48.852;9.936;2023-04-24T06:50:12;5.68;;;2.50;;
47960;SDS011;33721;48.852;9.936;2023-04-24T06:52:37;5.30;;;2.40;;
47960;SDS011;33721;48.852;9.936;2023-04-24T06:55:03;5.82;;;2.70;;
47960;SDS011;33721;48.852;9.936;2023-04-24T06:57:30;4.72;;;2.55;;
47960;SDS011;33721;48.852;9.936;2023-04-24T06:59:56;6.25;;;2.60;;
47960;SDS011;33721;48.852;9.936;2023-04-24T07:02:22;7.68;;;2.78;;
47960;SDS011;33721;48.852;9.936;2023-04-24T07:04:47;4.90;;;3.00;;
47960;SDS011;33721;48.852;9.936;2023-04-24T07:07:13;6.03;;;2.53;;
47960;SDS011;33721;48.852;9.936;2023-04-24T07:09:39;4.65;;;2.58;;
47960;SDS011;33721;48.852;9.936;2023-04-24T07:12:10;3.75;;;2.50;;
47960;SDS011;33721;48.852;9.936;2023-04-24T07:14:37;4.68;;;2.53;;
47960;SDS011;33721;48.852;9.936;2023-04-24T07:17:03;6.32;;;2.72;;
47960;SDS011;33721;48.852;9.936;2023-04-24T07:19:30;4.80;;;2.80;;
47960;SDS011;33721;48.852;9.936;2023-04-24T07:21:56;6.65;;;2.67;;
47960;SDS011;33721;48.852;9.936;2023-04-24T07:24:23;6.03;;;2.50;;
47960;SDS011;33721;48.852;9.936;2023-04-24T07:26:50;4.45;;;2.60;;
47960;SDS011;33721;48.852;9.936;2023-04-24T07:29:17;8.48;;;3.05;;
47960;SDS011;33721;48.852;9.936;2023-04-24T07:31:43;5.60;;;2.90;;
47960;SDS011;33721;48.852;9.936;2023-04-24T07:34:08;4.15;;;2.47;;
47960;SDS011;33721;48.852;9.936;2023-04-24T07:36:34;5.03;;;2.80;;
47960;SDS011;33721;48.852;9.936;2023-04-24T07:39:00;4.65;;;2.55;;
47960;SDS011;33721;48.852;9.936;2023-04-24T07:41:26;4.93;;;2.72;;
47960;SDS011;33721;48.852;9.936;2023-04-24T07:43:53;4.82;;;2.13;;
47960;SDS011;33721;48.852;9.936;2023-04-24T07:46:18;5.28;;;2.55;;
47960;SDS011;33721;48.852;9.936;2023-04-24T07:48:45;4.22;;;2.38;;
47960;SDS011;33721;48.852;9.936;2023-04-24T07:51:13;7.28;;;2.80;;
47960;SDS011;33721;48.852;9.936;2023-04-24T07:53:39;4.90;;;2.53;;
47960;SDS011;33721;48.852;9.936;2023-04-24T07:56:05;7.60;;;2.50;;
47960;SDS011;33721;48.852;9.936;2023-04-24T07:58:31;4.65;;;2.25;;
47960;SDS011;33721;48.852;9.936;2023-04-24T08:00:57;4.65;;;2.45;;
47960;SDS011;33721;48.852;9.936;2023-04-24T08:03:22;5.05;;;2.38;;
47960;SDS011;33721;48.852;9.936;2023-04-24T08:05:51;4.93;;;2.45;;
47960;SDS011;33721;48.852;9.936;2023-04-24T08:08:17;5.22;;;2.25;;
47960;SDS011;33721;48.852;9.936;2023-04-24T08:10:44;3.85;;;2.40;;
47960;SDS011;33721;48.852;9.936;2023-04-24T08:13:09;6.97;;;3.60;;
47960;SDS011;33721;48.852;9.936;2023-04-24T08:15:36;7.88;;;2.88;;
47960;SDS011;33721;48.852;9.936;2023-04-24T08:18:02;4.20;;;2.13;;
47960;SDS011;33721;48.852;9.936;2023-04-24T08:20:28;3.97;;;2.15;;
47960;SDS011;33721;48.852;9.936;2023-04-24T08:22:53;6.43;;;2.38;;
47960;SDS011;33721;48.852;9.936;2023-04-24T08:25:20;5.70;;;2.65;;
47960;SDS011;33721;48.852;9.936;2023-04-24T08:27:47;7.18;;;2.40;;
47960;SDS011;33721;48.852;9.936;2023-04-24T08:30:13;7.82;;;2.83;;
47960;SDS011;33721;48.852;9.936;2023-04-24T08:32:39;7.82;;;3.30;;
47960;SDS011;33721;48.852;9.936;2023-04-24T08:35:05;5.95;;;2.88;;
47960;SDS011;33721;48.852;9.936;2023-04-24T08:37:33;7.65;;;3.10;;
47960;SDS011;33721;48.852;9.936;2023-04-24T08:39:59;6.95;;;3.13;;
47960;SDS011;33721;48.852;9.936;2023-04-24T08:42:25;6.95;;;2.97;;
47960;SDS011;33721;48.852;9.936;2023-04-24T08:44:54;4.68;;;2.60;;
47960;SDS011;33721;48.852;9.936;2023-04-24T08:47:20;5.28;;;3.00;;
47960;SDS011;33721;48.852;9.936;2023-04-24T08:49:49;4.53;;;2.50;;
47960;SDS011;33721;48.852;9.936;2023-04-24T08:52:16;5.72;;;2.40;;
47960;SDS011;33721;48.852;9.936;2023-04-24T08:54:43;6.07;;;2.47;;
47960;SDS011;33721;48.852;9.936;2023-04-24T08:57:11;9.30;;;3.00;;
47960;SDS011;33721;48.852;9.936;2023-04-24T08:59:38;4.45;;;2.50;;
47960;SDS011;33721;48.852;9.936;2023-04-24T09:02:04;5.45;;;2.63;;
47960;SDS011;33721;48.852;9.936;2023-04-24T09:04:31;3.83;;;2.40;;
47960;SDS011;33721;48.852;9.936;2023-04-24T09:06:58;4.47;;;2.47;;
47960;SDS011;33721;48.852;9.936;2023-04-24T09:09:25;7.70;;;2.90;;
47960;SDS011;33721;48.852;9.936;2023-04-24T09:11:51;6.00;;;2.78;;
47960;SDS011;33721;48.852;9.936;2023-04-24T09:14:19;4.80;;;2.80;;
47960;SDS011;33721;48.852;9.936;2023-04-24T09:16:46;5.95;;;2.13;;
47960;SDS011;33721;48.852;9.936;2023-04-24T09:19:11;2.90;;;1.70;;
47960;SDS011;33721;48.852;9.936;2023-04-24T09:21:37;6.10;;;2.20;;
47960;SDS011;33721;48.852;9.936;2023-04-24T09:24:05;6.57;;;2.20;;
47960;SDS011;33721;48.852;9.936;2023-04-24T09:26:34;2.95;;;1.70;;
47960;SDS011;33721;48.852;9.936;2023-04-24T09:29:01;2.80;;;1.52;;
47960;SDS011;33721;48.852;9.936;2023-04-24T09:31:29;3.28;;;1.70;;
47960;SDS011;33721;48.852;9.936;2023-04-24T09:36:34;3.60;;;1.90;;
47960;SDS011;33721;48.852;9.936;2023-04-24T09:39:06;7.50;;;1.95;;
47960;SDS011;33721;48.852;9.936;2023-04-24T09:41:43;4.18;;;2.17;;
47960;SDS011;33721;48.852;9.936;2023-04-24T09:44:16;5.15;;;2.22;;
47960;SDS011;33721;48.852;9.936;2023-04-24T09:46:42;4.43;;;2.25;;
47960;SDS011;33721;48.852;9.936;2023-04-24T09:49:12;5.57;;;2.50;;
47960;SDS011;33721;48.852;9.936;2023-04-24T09:51:39;3.47;;;2.00;;
47960;SDS011;33721;48.852;9.936;2023-04-24T09:54:15;6.60;;;2.58;;
47960;SDS011;33721;48.852;9.936;2023-04-24T09:56:46;4.15;;;2.40;;
47960;SDS011;33721;48.852;9.936;2023-04-24T09:59:14;4.65;;;2.30;;
47960;SDS011;33721;48.852;9.936;2023-04-24T10:01:40;7.05;;;2.40;;
47960;SDS011;33721;48.852;9.936;2023-04-24T10:04:17;8.75;;;2.25;;
47960;SDS011;33721;48.852;9.936;2023-04-24T10:06:43;7.50;;;3.00;;
47960;SDS011;33721;48.852;9.936;2023-04-24T10:09:09;5.72;;;2.10;;
47960;SDS011;33721;48.852;9.936;2023-04-24T10:11:37;3.33;;;1.90;;
47960;SDS011;33721;48.852;9.936;2023-04-24T10:14:04;5.95;;;2.08;;
47960;SDS011;33721;48.852;9.936;2023-04-24T10:16:31;3.65;;;1.80;;
47960;SDS011;33721;48.852;9.936;2023-04-24T10:18:58;7.80;;;2.15;;
47960;SDS011;33721;48.852;9.936;2023-04-24T10:21:24;3.83;;;1.70;;
47960;SDS011;33721;48.852;9.936;2023-04-24T10:23:52;5.38;;;1.88;;
47960;SDS011;33721;48.852;9.936;2023-04-24T10:26:18;4.75;;;1.80;;
47960;SDS011;33721;48.852;9.936;2023-04-24T10:28:45;3.85;;;1.80;;
47960;SDS011;33721;48.852;9.936;2023-04-24T10:31:12;7.35;;;2.60;;
47960;SDS011;33721;48.852;9.936;2023-04-24T10:33:43;2.50;;;1.58;;
47960;SDS011;33721;48.852;9.936;2023-04-24T10:38:38;3.80;;;1.58;;
47960;SDS011;33721;48.852;9.936;2023-04-24T10:41:10;3.25;;;1.60;;
47960;SDS011;33721;48.852;9.936;2023-04-24T10:43:41;2.63;;;1.42;;
47960;SDS011;33721;48.852;9.936;2023-04-24T10:46:07;4.85;;;1.90;;
47960;SDS011;33721;48.852;9.936;2023-04-24T10:48:35;6.97;;;2.00;;
47960;SDS011;33721;48.852;9.936;2023-04-24T10:51:01;7.78;;;2.38;;
47960;SDS011;33721;48.852;9.936;2023-04-24T10:53:28;2.65;;;1.38;;
47960;SDS011;33721;48.852;9.936;2023-04-24T10:58:37;6.07;;;1.77;;
47960;SDS011;33721;48.852;9.936;2023-04-24T11:01:22;5.18;;;1.63;;
47960;SDS011;33721;48.852;9.936;2023-04-24T11:03:51;4.40;;;1.60;;
47960;SDS011;33721;48.852;9.936;2023-04-24T11:06:28;2.70;;;1.80;;
47960;SDS011;33721;48.852;9.936;2023-04-24T11:08:59;4.60;;;1.88;;
47960;SDS011;33721;48.852;9.936;2023-04-24T11:11:34;2.65;;;1.77;;
47960;SDS011;33721;48.852;9.936;2023-04-24T11:14:01;3.78;;;1.83;;
47960;SDS011;33721;48.852;9.936;2023-04-24T11:16:30;3.72;;;1.98;;
47960;SDS011;33721;48.852;9.936;2023-04-24T11:24:24;2.40;;;1.52;;
47960;SDS011;33721;48.852;9.936;2023-04-24T11:29:39;5.28;;;1.55;;
47960;SDS011;33721;48.852;9.936;2023-04-24T11:35:08;4.38;;;2.00;;
47960;SDS011;33721;48.852;9.936;2023-04-24T11:37:45;6.05;;;1.98;;
47960;SDS011;33721;48.852;9.936;2023-04-24T11:40:12;3.70;;;1.90;;
47960;SDS011;33721;48.852;9.936;2023-04-24T11:42:41;4.50;;;1.90;;
47960;SDS011;33721;48.852;9.936;2023-04-24T11:45:12;4.75;;;1.60;;
47960;SDS011;33721;48.852;9.936;2023-04-24T11:47:38;6.35;;;2.00;;
47960;SDS011;33721;48.852;9.936;2023-04-24T11:50:05;3.42;;;1.73;;
47960;SDS011;33721;48.852;9.936;2023-04-24T11:52:33;3.03;;;1.80;;
47960;SDS011;33721;48.852;9.936;2023-04-24T11:55:02;3.85;;;1.92;;
47960;SDS011;33721;48.852;9.936;2023-04-24T11:57:29;2.88;;;1.75;;
47960;SDS011;33721;48.852;9.936;2023-04-24T11:59:59;4.50;;;1.83;;
47960;SDS011;33721;48.852;9.936;2023-04-24T12:02:26;6.53;;;1.88;;
47960;SDS011;33721;48.852;9.936;2023-04-24T12:04:53;4.85;;;1.85;;
47960;SDS011;33721;48.852;9.936;2023-04-24T12:07:19;4.20;;;1.92;;
47960;SDS011;33721;48.852;9.936;2023-04-24T12:12:12;8.27;;;1.70;;
47960;SDS011;33721;48.852;9.936;2023-04-24T12:14:52;2.58;;;1.45;;
47960;SDS011;33721;48.852;9.936;2023-04-24T12:19:58;3.28;;;1.85;;
47960;SDS011;33721;48.852;9.936;2023-04-24T12:22:42;4.18;;;1.77;;
47960;SDS011;33721;48.852;9.936;2023-04-24T12:25:10;2.72;;;1.80;;
47960;SDS011;33721;48.852;9.936;2023-04-24T12:27:36;3.03;;;1.58;;
47960;SDS011;33721;48.852;9.936;2023-04-24T12:30:03;3.53;;;1.85;;
47960;SDS011;33721;48.852;9.936;2023-04-24T12:32:30;3.80;;;1.90;;
47960;SDS011;33721;48.852;9.936;2023-04-24T12:34:56;5.13;;;1.83;;
47960;SDS011;33721;48.852;9.936;2023-04-24T12:37:23;2.72;;;1.80;;
47960;SDS011;33721;48.852;9.936;2023-04-24T12:40:00;3.17;;;1.65;;
47960;SDS011;33721;48.852;9.936;2023-04-24T12:42:27;2.67;;;1.35;;
47960;SDS011;33721;48.852;9.936;2023-04-24T12:44:58;2.60;;;1.65;;
47960;SDS011;33721;48.852;9.936;2023-04-24T12:47:27;5.25;;;1.70;;
47960;SDS011;33721;48.852;9.936;2023-04-24T12:49:53;3.22;;;1.70;;
47960;SDS011;33721;48.852;9.936;2023-04-24T12:52:20;3.08;;;1.88;;
47960;SDS011;33721;48.852;9.936;2023-04-24T12:54:51;3.60;;;1.67;;
47960;SDS011;33721;48.852;9.936;2023-04-24T12:57:18;3.50;;;2.25;;
47960;SDS011;33721;48.852;9.936;2023-04-24T12:59:43;4.50;;;2.00;;
47960;SDS011;33721;48.852;9.936;2023-04-24T13:02:10;3.30;;;1.98;;
47960;SDS011;33721;48.852;9.936;2023-04-24T13:04:36;9.65;;;1.88;;
47960;SDS011;33721;48.852;9.936;2023-04-24T13:07:02;4.15;;;2.00;;
47960;SDS011;33721;48.852;9.936;2023-04-24T13:09:27;4.38;;;1.88;;
47960;SDS011;33721;48.852;9.936;2023-04-24T13:11:53;4.13;;;1.85;;
47960;SDS011;33721;48.852;9.936;2023-04-24T13:14:19;4.68;;;1.90;;
47960;SDS011;33721;48.852;9.936;2023-04-24T13:16:45;6.85;;;2.28;;
47960;SDS011;33721;48.852;9.936;2023-04-24T13:19:10;3.72;;;2.08;;
47960;SDS011;33721;48.852;9.936;2023-04-24T13:21:36;6.05;;;2.00;;
47960;SDS011;33721;48.852;9.936;2023-04-24T13:24:02;4.18;;;1.90;;
47960;SDS011;33721;48.852;9.936;2023-04-24T13:26:29;5.63;;;1.95;;
47960;SDS011;33721;48.852;9.936;2023-04-24T13:28:55;3.55;;;1.90;;
47960;SDS011;33721;48.852;9.936;2023-04-24T13:31:21;3.80;;;2.03;;
47960;SDS011;33721;48.852;9.936;2023-04-24T13:33:46;6.28;;;2.20;;
47960;SDS011;33721;48.852;9.936;2023-04-24T13:36:12;4.18;;;2.20;;
47960;SDS011;33721;48.852;9.936;2023-04-24T13:38:38;3.13;;;1.90;;
47960;SDS011;33721;48.852;9.936;2023-04-24T13:41:04;4.32;;;1.90;;
47960;SDS011;33721;48.852;9.936;2023-04-24T13:43:29;3.45;;;2.10;;
47960;SDS011;33721;48.852;9.936;2023-04-24T13:45:55;3.17;;;2.05;;
47960;SDS011;33721;48.852;9.936;2023-04-24T13:48:21;6.05;;;2.55;;
47960;SDS011;33721;48.852;9.936;2023-04-24T13:50:46;4.15;;;1.90;;
47960;SDS011;33721;48.852;9.936;2023-04-24T13:53:14;4.07;;;1.80;;
47960;SDS011;33721;48.852;9.936;2023-04-24T13:55:40;3.78;;;2.13;;
47960;SDS011;33721;48.852;9.936;2023-04-24T13:58:05;4.07;;;2.05;;
47960;SDS011;33721;48.852;9.936;2023-04-24T14:00:32;3.05;;;1.88;;
47960;SDS011;33721;48.852;9.936;2023-04-24T14:02:58;4.72;;;2.20;;
47960;SDS011;33721;48.852;9.936;2023-04-24T14:05:23;5.50;;;2.20;;
47960;SDS011;33721;48.852;9.936;2023-04-24T14:07:50;4.10;;;2.22;;
47960;SDS011;33721;48.852;9.936;2023-04-24T14:10:16;4.90;;;2.42;;
47960;SDS011;33721;48.852;9.936;2023-04-24T14:12:41;10.38;;;2.88;;
47960;SDS011;33721;48.852;9.936;2023-04-24T14:15:07;6.38;;;2.40;;
47960;SDS011;33721;48.852;9.936;2023-04-24T14:17:33;6.50;;;2.72;;
47960;SDS011;33721;48.852;9.936;2023-04-24T14:19:59;7.47;;;2.70;;
47960;SDS011;33721;48.852;9.936;2023-04-24T14:22:25;4.35;;;2.50;;
47960;SDS011;33721;48.852;9.936;2023-04-24T14:24:51;4.93;;;2.55;;
47960;SDS011;33721;48.852;9.936;2023-04-24T14:27:17;4.25;;;2.20;;
47960;SDS011;33721;48.852;9.936;2023-04-24T14:29:42;4.80;;;1.75;;
47960;SDS011;33721;48.852;9.936;2023-04-24T14:32:10;2.75;;;1.67;;
47960;SDS011;33721;48.852;9.936;2023-04-24T14:34:35;3.13;;;1.50;;
47960;SDS011;33721;48.852;9.936;2023-04-24T14:37:01;3.03;;;1.50;;
47960;SDS011;33721;48.852;9.936;2023-04-24T14:39:27;2.35;;;1.70;;
47960;SDS011;33721;48.852;9.936;2023-04-24T14:41:53;4.43;;;1.85;;
47960;SDS011;33721;48.852;9.936;2023-04-24T14:44:20;5.25;;;1.90;;
47960;SDS011;33721;48.852;9.936;2023-04-24T14:46:45;4.20;;;2.33;;
47960;SDS011;33721;48.852;9.936;2023-04-24T14:49:13;3.72;;;2.08;;
47960;SDS011;33721;48.852;9.936;2023-04-24T14:51:39;6.15;;;2.10;;
47960;SDS011;33721;48.852;9.936;2023-04-24T14:54:05;2.75;;;1.65;;
47960;SDS011;33721;48.852;9.936;2023-04-24T14:56:31;5.07;;;2.55;;
47960;SDS011;33721;48.852;9.936;2023-04-24T14:58:57;4.82;;;2.70;;
47960;SDS011;33721;48.852;9.936;2023-04-24T15:01:23;5.90;;;3.33;;
47960;SDS011;33721;48.852;9.936;2023-04-24T15:03:49;6.03;;;2.75;;
47960;SDS011;33721;48.852;9.936;2023-04-24T15:06:15;5.65;;;2.38;;
47960;SDS011;33721;48.852;9.936;2023-04-24T15:08:40;5.85;;;2.53;;
47960;SDS011;33721;48.852;9.936;2023-04-24T15:11:07;8.55;;;2.80;;